Terminal Aerodrome Forecast
Issued by NWS Shreveport, LA

Home | Current Version | Previous Version | Text Only | Print | Product List | Glossary On
Versions: 1 2 3 4 5 6 7 8 9 10 11 12 13 14 15 16 17
000
FTUS44 KSHV 311100
TAFMLU
TAF
KMLU 311138Z 3112/0112 10006KT P6SM OVC250
     FM312100 14006KT P6SM OVC250
     FM010300 15007KT P6SM BKN050
     FM011000 16008KT P6SM -RA BKN025=

USA.gov is the U.S. government's official web portal to all federal, state and local government web resources and services.